createdAt,value
2023-03-06T00:01:41.972Z,6.17
2023-03-06T00:04:47.427Z,6.13
2023-03-06T00:07:52.971Z,6.13
2023-03-06T00:10:59.717Z,5.94
2023-03-06T00:14:05.492Z,6.10
2023-03-06T00:17:11.222Z,6.12
2023-03-06T00:20:17.402Z,6.16
2023-03-06T00:23:23.321Z,6.05
2023-03-06T00:26:29.093Z,6.00
2023-03-06T00:29:34.698Z,6.13
2023-03-06T00:32:40.190Z,6.33
2023-03-06T00:35:46.182Z,6.36
2023-03-06T00:38:51.742Z,6.24
2023-03-06T00:41:57.500Z,6.28
2023-03-06T00:45:04.198Z,6.18
2023-03-06T00:48:09.599Z,6.15
2023-03-06T00:51:15.115Z,6.08
2023-03-06T00:54:22.501Z,6.18
2023-03-06T00:57:28.186Z,6.12
2023-03-06T01:00:33.790Z,6.09
2023-03-06T01:03:39.452Z,6.17
2023-03-06T01:06:44.549Z,6.08
2023-03-06T01:09:50.226Z,6.12
2023-03-06T01:12:56.105Z,6.27
2023-03-06T01:16:09.730Z,6.32
2023-03-06T01:19:15.375Z,6.24
2023-03-06T01:22:20.698Z,6.21
2023-03-06T01:25:26.461Z,6.24
2023-03-06T01:28:34.294Z,6.14
2023-03-06T01:31:41.228Z,6.13
2023-03-06T01:34:46.978Z,6.10
2023-03-06T01:37:52.843Z,6.14
2023-03-06T01:40:58.934Z,6.15
2023-03-06T01:44:05.770Z,6.13
2023-03-06T01:47:11.454Z,6.09
2023-03-06T01:50:17.242Z,5.95
2023-03-06T01:53:23.295Z,6.06
2023-03-06T01:56:29.116Z,6.13
2023-03-06T01:59:38.566Z,6.13
2023-03-06T02:03:18.840Z,6.09
2023-03-06T02:06:24.656Z,6.10
2023-03-06T02:09:31.729Z,6.05
2023-03-06T02:12:37.865Z,6.11
2023-03-06T02:15:43.475Z,6.01
2023-03-06T02:18:50.945Z,5.98
2023-03-06T02:21:56.586Z,5.97
2023-03-06T02:25:13.901Z,6.01
2023-03-06T02:28:22.355Z,6.09
2023-03-06T02:31:32.478Z,6.25
2023-03-06T02:34:46.401Z,6.25
2023-03-06T02:37:52.749Z,6.34
2023-03-06T02:40:59.211Z,6.36
2023-03-06T02:44:08.442Z,6.32
2023-03-06T02:47:13.938Z,6.39
2023-03-06T02:50:20.138Z,6.30
2023-03-06T02:53:27.820Z,6.21
2023-03-06T02:56:33.620Z,6.24
2023-03-06T02:59:38.925Z,6.20
2023-03-06T03:02:45.957Z,6.21
2023-03-06T03:05:52.089Z,5.91
2023-03-06T03:09:04.896Z,5.76
2023-03-06T03:12:10.789Z,5.97
2023-03-06T03:15:17.815Z,5.93
2023-03-06T03:18:23.639Z,5.95
2023-03-06T03:21:29.596Z,5.84
2023-03-06T03:24:34.839Z,5.83
2023-03-06T03:27:40.827Z,5.66
2023-03-06T03:30:46.592Z,5.72
2023-03-06T03:33:51.987Z,5.91
2023-03-06T03:36:59.273Z,5.99
2023-03-06T03:40:07.439Z,5.77
2023-03-06T03:43:12.839Z,5.74
2023-03-06T03:46:18.446Z,6.01
2023-03-06T03:49:24.947Z,5.91
2023-03-06T03:52:31.758Z,6.08
2023-03-06T03:55:37.366Z,5.93
2023-03-06T03:58:43.208Z,6.09
2023-03-06T04:01:48.561Z,6.04
2023-03-06T04:04:54.066Z,5.94
2023-03-06T04:07:59.363Z,6.04
2023-03-06T04:11:05.295Z,6.17
2023-03-06T04:14:11.151Z,6.35
2023-03-06T04:17:16.481Z,6.50
2023-03-06T04:20:21.961Z,6.49
2023-03-06T04:23:28.624Z,6.44
2023-03-06T04:26:34.242Z,6.44
2023-03-06T04:29:39.767Z,6.51
2023-03-06T04:32:45.430Z,6.50
2023-03-06T04:35:50.851Z,6.57
2023-03-06T04:39:02.142Z,6.64
2023-03-06T04:42:07.469Z,6.55
2023-03-06T04:45:13.528Z,6.48
2023-03-06T04:48:18.951Z,6.44
2023-03-06T04:51:24.388Z,6.37
2023-03-06T04:54:29.822Z,6.61
2023-03-06T04:57:37.373Z,6.50
2023-03-06T05:00:43.077Z,6.43
2023-03-06T05:03:50.089Z,6.50
2023-03-06T05:06:55.810Z,6.70
2023-03-06T05:10:01.273Z,6.67
2023-03-06T05:13:06.416Z,6.65
2023-03-06T05:16:11.556Z,6.47
2023-03-06T05:19:16.952Z,6.51
2023-03-06T05:22:22.713Z,6.59
2023-03-06T05:25:27.883Z,6.48
2023-03-06T05:28:33.714Z,6.52
2023-03-06T05:31:38.951Z,6.55
2023-03-06T05:34:44.129Z,6.68
2023-03-06T05:37:50.231Z,6.75
2023-03-06T05:40:56.338Z,6.73
2023-03-06T05:44:01.474Z,6.51
2023-03-06T05:47:06.687Z,6.58
2023-03-06T05:50:14.203Z,6.49
2023-03-06T05:53:19.668Z,6.46
2023-03-06T05:56:24.797Z,6.56
2023-03-06T05:59:30.197Z,6.53
2023-03-06T06:02:35.639Z,6.48
2023-03-06T06:05:41.371Z,6.55
2023-03-06T06:08:46.661Z,6.45
2023-03-06T06:11:53.750Z,6.45
2023-03-06T06:14:59.052Z,6.42
2023-03-06T06:18:04.508Z,6.46
2023-03-06T06:21:12.666Z,6.51
2023-03-06T06:24:20.818Z,6.48
2023-03-06T06:27:26.321Z,6.62
2023-03-06T06:30:33.236Z,6.66
2023-03-06T06:33:39.877Z,6.77
2023-03-06T06:36:45.072Z,6.85
2023-03-06T06:39:51.091Z,6.89
2023-03-06T06:42:56.279Z,6.81
2023-03-06T06:46:32.112Z,6.87
2023-03-06T06:49:28.443Z,7.02
2023-03-06T06:52:33.860Z,6.94
2023-03-06T06:55:39.116Z,7.08
2023-03-06T06:58:44.804Z,7.07
2023-03-06T07:01:51.664Z,7.16
2023-03-06T07:05:04.175Z,7.07
2023-03-06T07:08:10.644Z,7.25
2023-03-06T07:11:18.292Z,7.20
2023-03-06T07:14:23.771Z,7.18
2023-03-06T07:17:29.405Z,7.36
2023-03-06T07:20:34.754Z,7.46
2023-03-06T07:23:40.699Z,7.47
2023-03-06T07:26:48.996Z,7.51
2023-03-06T07:29:54.393Z,7.39
2023-03-06T07:33:00.252Z,7.50
2023-03-06T07:36:12.795Z,7.49
2023-03-06T07:39:19.066Z,7.49
2023-03-06T07:42:24.711Z,7.47
2023-03-06T07:45:38.498Z,7.55
2023-03-06T07:48:44.850Z,7.57
2023-03-06T07:51:50.322Z,7.50
2023-03-06T07:54:55.612Z,7.50
2023-03-06T07:58:00.966Z,7.42
2023-03-06T08:01:09.228Z,7.43
2023-03-06T08:04:14.577Z,7.49
2023-03-06T08:07:20.523Z,7.69
2023-03-06T08:10:25.843Z,7.85
2023-03-06T08:13:31.656Z,7.80
2023-03-06T08:16:37.080Z,7.72
2023-03-06T08:19:42.514Z,7.98
2023-03-06T08:22:49.513Z,7.92
2023-03-06T08:26:04.719Z,7.95
2023-03-06T08:29:11.164Z,8.20
2023-03-06T08:32:16.339Z,8.30
2023-03-06T08:35:22.057Z,8.35
2023-03-06T08:38:27.484Z,8.43
2023-03-06T08:41:33.898Z,8.45
2023-03-06T08:44:39.549Z,8.57
2023-03-06T08:47:45.135Z,8.70
2023-03-06T08:50:51.089Z,8.82
2023-03-06T08:53:58.301Z,9.01
2023-03-06T08:57:03.733Z,9.18
2023-03-06T09:00:11.151Z,9.32
2023-03-06T09:03:16.352Z,9.19
2023-03-06T09:06:22.141Z,9.19
2023-03-06T09:09:27.386Z,9.15
2023-03-06T09:12:47.262Z,9.25
2023-03-06T09:15:55.500Z,9.66
2023-03-06T09:19:01.395Z,9.87
2023-03-06T09:22:06.908Z,10.19
2023-03-06T09:25:14.233Z,10.28
2023-03-06T09:28:20.018Z,10.52
2023-03-06T09:31:25.563Z,10.79
2023-03-06T09:34:31.062Z,10.77
2023-03-06T09:37:36.845Z,10.92
2023-03-06T09:44:26.400Z,10.94
2023-03-06T09:48:00.233Z,11.16
2023-03-06T09:51:16.756Z,11.25
2023-03-06T09:54:34.771Z,11.23
2023-03-06T09:57:59.139Z,11.15
2023-03-06T10:01:12.413Z,11.43
2023-03-06T10:04:40.617Z,11.35
2023-03-06T10:07:53.675Z,11.24
2023-03-06T10:11:04.002Z,11.17
2023-03-06T10:14:35.094Z,11.43
2023-03-06T10:17:42.725Z,11.43
2023-03-06T10:21:00.938Z,11.61
2023-03-06T10:24:27.588Z,11.36
2023-03-06T10:27:48.952Z,11.63
2023-03-06T10:31:09.308Z,11.51
2023-03-06T10:34:44.709Z,11.60
2023-03-06T10:37:50.205Z,11.88
2023-03-06T10:41:13.261Z,11.89
2023-03-06T10:44:24.026Z,11.80
2023-03-06T10:47:35.556Z,11.84
2023-03-06T10:50:41.250Z,11.62
2023-03-06T10:54:14.495Z,11.63
2023-03-06T10:57:40.808Z,11.95
2023-03-06T11:00:46.379Z,11.67
2023-03-06T11:03:53.371Z,11.67
2023-03-06T11:07:19.559Z,12.02
2023-03-06T11:10:25.828Z,11.89
2023-03-06T11:13:36.005Z,12.16
2023-03-06T11:16:53.202Z,12.13
2023-03-06T11:20:48.564Z,12.30
2023-03-06T11:24:02.093Z,12.41
2023-03-06T11:27:35.007Z,12.48
2023-03-06T11:30:46.546Z,12.44
2023-03-06T11:33:55.375Z,12.52
2023-03-06T11:37:32.606Z,12.42
2023-03-06T11:41:01.444Z,12.20
2023-03-06T11:44:28.379Z,12.11
2023-03-06T11:48:01.950Z,12.27
2023-03-06T11:51:17.561Z,12.66
2023-03-06T11:54:23.407Z,12.68
2023-03-06T11:58:12.095Z,12.52
2023-03-06T12:01:44.548Z,12.78
2023-03-06T12:05:21.471Z,12.56
2023-03-06T12:08:45.734Z,12.62
2023-03-06T12:11:56.440Z,12.79
2023-03-06T12:15:23.053Z,12.99
2023-03-06T12:18:56.640Z,12.85
2023-03-06T12:22:39.260Z,12.77
2023-03-06T12:26:09.329Z,13.07
2023-03-06T12:29:42.257Z,12.95
2023-03-06T12:33:08.793Z,12.99
2023-03-06T12:36:52.848Z,12.82
2023-03-06T12:40:39.579Z,13.18
2023-03-06T12:43:44.890Z,13.32
2023-03-06T12:46:57.647Z,13.41
2023-03-06T12:50:18.549Z,13.39
2023-03-06T12:53:29.867Z,12.98
2023-03-06T12:56:35.682Z,13.24
2023-03-06T12:59:49.614Z,13.44
2023-03-06T13:03:13.297Z,13.58
2023-03-06T13:06:55.474Z,13.14
2023-03-06T13:10:03.481Z,13.80
2023-03-06T13:13:34.947Z,13.86
2023-03-06T13:16:40.312Z,13.65
2023-03-06T13:19:45.547Z,13.76
2023-03-06T13:22:50.545Z,13.72
2023-03-06T13:26:02.303Z,13.70
2023-03-06T13:29:38.553Z,13.99
2023-03-06T13:32:44.016Z,13.81
2023-03-06T13:35:54.145Z,13.66
2023-03-06T13:39:00.585Z,13.56
2023-03-06T13:42:07.445Z,13.38
2023-03-06T13:45:19.743Z,13.26
2023-03-06T13:48:45.457Z,13.08
2023-03-06T13:51:52.011Z,13.29
2023-03-06T13:55:09.463Z,13.40
2023-03-06T13:58:24.082Z,13.30
2023-03-06T14:01:41.826Z,13.39
2023-03-06T14:04:59.239Z,13.45
2023-03-06T14:08:15.529Z,13.41
2023-03-06T14:11:21.798Z,13.03
2023-03-06T14:14:39.935Z,13.37
2023-03-06T14:17:56.589Z,13.14
2023-03-06T14:21:05.819Z,13.00
2023-03-06T14:24:16.935Z,13.26
2023-03-06T14:27:47.356Z,13.58
2023-03-06T14:30:54.403Z,13.63
2023-03-06T14:34:07.284Z,13.59
2023-03-06T14:37:22.799Z,13.47
2023-03-06T14:40:40.938Z,13.55
2023-03-06T14:43:46.134Z,13.36
2023-03-06T14:47:32.130Z,13.24
2023-03-06T14:50:40.922Z,13.32
2023-03-06T14:53:49.604Z,13.67
2023-03-06T14:57:01.707Z,13.88
2023-03-06T15:00:08.307Z,13.92
2023-03-06T15:03:28.463Z,14.07
2023-03-06T15:06:38.494Z,14.14
2023-03-06T15:09:48.526Z,14.07
2023-03-06T15:12:54.383Z,14.01
2023-03-06T15:16:07.304Z,13.97
2023-03-06T15:19:22.040Z,13.69
2023-03-06T15:22:42.142Z,13.56
2023-03-06T15:26:43.593Z,13.76
2023-03-06T15:29:49.095Z,13.48
2023-03-06T15:33:27.087Z,13.49
2023-03-06T15:36:37.415Z,13.37
2023-03-06T15:39:43.487Z,13.46
2023-03-06T15:42:52.273Z,13.44
2023-03-06T15:46:01.077Z,13.44
2023-03-06T15:49:14.720Z,13.39
2023-03-06T15:52:21.005Z,13.33
2023-03-06T15:55:26.487Z,13.23
2023-03-06T15:58:34.184Z,13.10
2023-03-06T16:01:39.689Z,13.06
2023-03-06T16:04:46.186Z,13.03
2023-03-06T16:07:52.094Z,13.07
2023-03-06T16:10:58.462Z,12.95
2023-03-06T16:14:04.353Z,12.86
2023-03-06T16:17:12.430Z,12.80
2023-03-06T16:20:21.500Z,12.81
2023-03-06T16:23:27.018Z,12.66
2023-03-06T16:26:35.403Z,12.53
2023-03-06T16:29:40.659Z,12.43
2023-03-06T16:32:46.777Z,12.39
2023-03-06T16:35:52.445Z,12.27
2023-03-06T16:38:57.962Z,12.22
2023-03-06T16:42:03.021Z,12.07
2023-03-06T16:45:08.992Z,11.97
2023-03-06T16:48:17.210Z,11.93
2023-03-06T16:51:23.367Z,11.86
2023-03-06T16:54:28.558Z,11.76
2023-03-06T16:57:36.273Z,11.66
2023-03-06T17:00:42.570Z,11.57
2023-03-06T17:03:47.722Z,11.49
2023-03-06T17:06:53.480Z,11.44
2023-03-06T17:09:58.699Z,11.36
2023-03-06T17:13:05.435Z,11.27
2023-03-06T17:16:16.475Z,11.23
2023-03-06T17:19:21.947Z,11.16
2023-03-06T17:22:27.862Z,11.15
2023-03-06T17:25:35.178Z,11.17
2023-03-06T17:28:41.565Z,11.10
2023-03-06T17:31:47.117Z,11.13
2023-03-06T17:34:52.853Z,11.11
2023-03-06T17:37:58.437Z,10.96
2023-03-06T17:41:05.378Z,10.82
2023-03-06T17:44:12.456Z,10.76
2023-03-06T17:47:17.818Z,10.76
2023-03-06T17:50:23.305Z,10.65
2023-03-06T17:53:29.006Z,10.56
2023-03-06T17:56:33.949Z,10.57
2023-03-06T17:59:39.431Z,10.47
2023-03-06T18:02:45.629Z,10.41
2023-03-06T18:06:01.984Z,10.38
2023-03-06T18:09:07.994Z,10.31
2023-03-06T18:12:13.342Z,10.18
2023-03-06T18:15:19.236Z,10.07
2023-03-06T18:18:24.823Z,10.09
2023-03-06T18:21:30.108Z,10.05
2023-03-06T18:24:36.846Z,10.00
2023-03-06T18:27:42.437Z,10.08
2023-03-06T18:30:47.431Z,10.08
2023-03-06T18:33:54.197Z,10.13
2023-03-06T18:36:59.646Z,10.06
2023-03-06T18:40:04.843Z,10.03
2023-03-06T18:43:10.178Z,10.03
2023-03-06T18:46:15.542Z,9.97
2023-03-06T18:49:20.838Z,9.81
2023-03-06T18:52:26.077Z,9.69
2023-03-06T18:55:31.134Z,9.69
2023-03-06T18:58:36.783Z,9.57
2023-03-06T19:01:46.613Z,9.50
2023-03-06T19:04:53.149Z,9.56
2023-03-06T19:07:58.640Z,9.61
2023-03-06T19:11:06.252Z,9.73
2023-03-06T19:14:11.644Z,9.65
2023-03-06T19:17:17.054Z,9.56
2023-03-06T19:20:24.261Z,9.60
2023-03-06T19:23:29.676Z,9.59
2023-03-06T19:26:34.979Z,9.64
2023-03-06T19:29:40.366Z,9.67
2023-03-06T19:32:46.411Z,9.67
2023-03-06T19:35:52.132Z,9.69
2023-03-06T19:38:59.817Z,9.65
2023-03-06T19:42:05.610Z,9.66
2023-03-06T19:45:11.093Z,9.56
2023-03-06T19:48:17.934Z,9.52
2023-03-06T19:51:23.954Z,9.64
2023-03-06T19:54:32.159Z,9.68
2023-03-06T19:57:37.892Z,9.67
2023-03-06T20:00:43.362Z,9.49
2023-03-06T20:03:50.746Z,9.53
2023-03-06T20:06:56.622Z,9.23
2023-03-06T20:10:03.153Z,9.00
2023-03-06T20:13:08.815Z,8.97
2023-03-06T20:16:14.543Z,9.18
2023-03-06T20:19:20.574Z,9.25
2023-03-06T20:22:26.581Z,9.24
2023-03-06T20:25:32.087Z,9.19
2023-03-06T20:28:39.240Z,9.02
2023-03-06T20:31:44.722Z,8.95
2023-03-06T20:34:50.312Z,8.81
2023-03-06T20:37:55.870Z,8.59
2023-03-06T20:41:01.562Z,8.68
2023-03-06T20:44:10.065Z,8.52
2023-03-06T20:47:17.307Z,8.43
2023-03-06T20:50:23.422Z,8.37
2023-03-06T20:53:29.587Z,8.34
2023-03-06T20:56:41.812Z,8.23
2023-03-06T20:59:47.200Z,8.32
2023-03-06T21:02:52.782Z,8.15
2023-03-06T21:05:58.340Z,8.26
2023-03-06T21:09:06.304Z,8.32
2023-03-06T21:12:11.633Z,8.26
2023-03-06T21:15:17.258Z,8.30
2023-03-06T21:18:22.953Z,8.32
2023-03-06T21:21:33.070Z,8.35
2023-03-06T21:24:38.476Z,8.45
2023-03-06T21:27:44.214Z,8.14
2023-03-06T21:30:49.948Z,8.22
2023-03-06T21:33:56.555Z,8.22
2023-03-06T21:37:02.235Z,8.10
2023-03-06T21:40:09.081Z,7.73
2023-03-06T21:43:16.008Z,7.88
2023-03-06T21:46:21.325Z,7.90
2023-03-06T21:49:27.038Z,7.78
2023-03-06T21:52:32.502Z,7.85
2023-03-06T21:55:41.210Z,7.83
2023-03-06T21:58:47.366Z,7.65
2023-03-06T22:01:53.415Z,7.63
2023-03-06T22:04:58.967Z,7.73
2023-03-06T22:08:04.570Z,7.40
2023-03-06T22:11:16.567Z,7.41
2023-03-06T22:14:22.421Z,7.45
2023-03-06T22:17:28.262Z,7.50
2023-03-06T22:20:34.078Z,7.61
2023-03-06T22:23:40.958Z,7.69
2023-03-06T22:26:46.997Z,7.55
2023-03-06T22:29:53.682Z,7.48
2023-03-06T22:32:59.782Z,7.57
2023-03-06T22:36:10.204Z,7.52
2023-03-06T22:39:16.055Z,7.57
2023-03-06T22:42:21.570Z,7.43
2023-03-06T22:45:27.209Z,7.25
2023-03-06T22:48:33.024Z,7.21
2023-03-06T22:51:38.976Z,7.25
2023-03-06T22:54:46.196Z,7.20
2023-03-06T22:57:51.152Z,7.09
2023-03-06T23:00:56.729Z,7.21
2023-03-06T23:04:04.575Z,7.19
2023-03-06T23:07:10.025Z,7.02
2023-03-06T23:10:15.619Z,6.82
2023-03-06T23:13:40.617Z,6.75
2023-03-06T23:17:05.181Z,6.63
2023-03-06T23:20:29.963Z,6.72
2023-03-06T23:23:55.208Z,6.78
2023-03-06T23:27:00.397Z,6.89
2023-03-06T23:30:06.839Z,6.92
2023-03-06T23:33:12.598Z,6.78
2023-03-06T23:36:19.234Z,6.86
2023-03-06T23:42:43.946Z,6.65
2023-03-06T23:45:56.039Z,6.32
2023-03-06T23:49:01.578Z,5.86
2023-03-06T23:52:06.912Z,6.17
2023-03-06T23:55:12.493Z,6.18
2023-03-06T23:58:19.120Z,6.25
